Time;durP1;ratioP1;P1;durP2;ratioP2;P2;SDS_P1;SDS_P2;PMS_P1;PMS_P2;Temp;Humidity;BMP_temperature;BMP_pressure;BME280_temperature;BME280_humidity;BME280_pressure;Samples;Min_cycle;Max_cycle;Signal;HPM_P1;HPM_P2
2021/07/12 21:45:04;;;;;;;26.08;7.95;;;;;;;27.79;42.73;100008.81;3476980;27;2141189;-77
2021/07/12 21:46:44;;;;;;;;;;;;;;;27.78;43.02;100012.69;3520758;28;20592;-79
2021/07/12 21:48:25;;;;;;;14.05;6.20;;;;;;;27.78;43.48;100003.66;3504097;28;20361;-76
2021/07/12 21:50:07;;;;;;;12.03;7.13;;;;;;;27.80;43.67;100009.63;3515799;28;20058;-79
2021/07/12 21:51:47;;;;;;;16.80;7.53;;;;;;;27.81;43.53;100009.38;3515181;28;20040;-78
2021/07/12 21:53:28;;;;;;;14.80;6.60;;;;;;;27.83;43.79;100015.38;3519358;28;20487;-76
2021/07/12 21:55:12;;;;;;;17.63;7.10;;;;;;;27.86;43.99;100007.66;3522436;28;20044;-78
2021/07/12 21:56:52;;;;;;;12.88;7.05;;;;;;;27.87;43.77;100004.59;3506918;28;20051;-78
2021/07/12 21:58:33;;;;;;;19.30;7.93;;;;;;;27.89;43.51;100002.38;3519414;28;20479;-77
2021/07/12 22:00:15;;;;;;;24.53;7.97;;;;;;;27.90;43.55;100001.25;3522411;28;20051;-80
2021/07/12 22:01:56;;;;;;;25.38;7.38;;;;;;;27.92;43.73;99998.22;3522263;28;20075;-78
2021/07/12 22:03:37;;;;;;;20.50;7.20;;;;;;;27.93;43.43;99999.84;3507232;28;20048;-77
2021/07/12 22:05:18;;;;;;;22.15;7.57;;;;;;;27.95;43.80;99995.69;3519263;28;20425;-79
2021/07/12 22:06:59;;;;;;;23.20;7.67;;;;;;;27.95;43.59;99998.41;3522228;28;20096;-79
2021/07/12 22:08:40;;;;;;;9.70;6.20;;;;;;;27.95;43.75;99997.63;3522475;28;20481;-78
2021/07/12 22:10:43;;;;;;;15.73;6.93;;;;;;;27.96;43.79;100002.81;3522090;28;20569;-78
2021/07/12 22:12:24;;;;;;;14.85;6.57;;;;;;;27.96;43.73;99994.59;3522006;28;20567;-76
2021/07/12 22:14:05;;;;;;;13.27;6.50;;;;;;;27.96;43.54;99991.00;3507411;28;20092;-79
2021/07/12 22:15:45;;;;;;;21.73;7.50;;;;;;;27.96;44.08;99996.50;3519197;28;20079;-79
2021/07/12 22:17:26;;;;;;;12.13;6.33;;;;;;;27.97;43.64;100003.63;3521977;28;20042;-77
2021/07/12 22:19:08;;;;;;;17.03;7.30;;;;;;;27.98;43.65;99999.75;3521978;28;20097;-80
2021/07/12 22:20:49;;;;;;;18.55;6.90;;;;;;;27.97;43.83;100001.69;3522004;28;20070;-78
2021/07/12 22:22:30;;;;;;;13.55;7.30;;;;;;;27.97;44.11;100009.09;3492950;28;20477;-77
2021/07/12 22:24:13;;;;;;;20.27;7.57;;;;;;;27.96;44.20;100007.44;3516452;28;20079;-79
2021/07/12 22:25:53;;;;;;;9.57;7.25;;;;;;;27.97;43.85;100009.09;3521768;28;20413;-78
2021/07/12 22:27:35;;;;;;;12.07;7.27;;;;;;;27.96;43.62;100012.94;3521874;28;20036;-78
2021/07/12 22:29:21;;;;;;;10.02;6.60;;;;;;;27.94;43.58;100009.69;3522134;28;20281;-78
2021/07/12 22:31:02;;;;;;;9.68;6.20;;;;;;;27.95;43.76;100003.09;3506908;28;20048;-79
2021/07/12 22:32:43;;;;;;;10.45;8.30;;;;;;;27.94;43.81;100006.97;3490635;28;20047;-79
2021/07/12 22:34:23;;;;;;;11.63;7.53;;;;;;;27.92;43.73;100003.72;3515862;28;20485;-79
2021/07/12 22:36:04;;;;;;;15.53;7.20;;;;;;;27.92;43.25;100000.97;3521742;28;20040;-77
2021/07/12 22:37:50;;;;;;;11.02;7.35;;;;;;;27.93;43.46;100008.06;3492953;28;20049;-79
2021/07/12 22:39:30;;;;;;;20.75;7.82;;;;;;;27.91;43.95;100010.31;3490630;28;20048;-79
2021/07/12 22:41:11;;;;;;;15.07;8.23;;;;;;;27.88;43.75;100003.50;3516330;28;20513;-77
2021/07/12 22:42:52;;;;;;;12.37;7.13;;;;;;;27.88;43.48;100011.72;3521563;28;20528;-81
2021/07/12 22:44:32;;;;;;;14.60;8.07;;;;;;;27.88;43.39;100010.91;3521537;28;20078;-78
2021/07/12 22:46:13;;;;;;;12.67;7.13;;;;;;;27.87;43.82;100006.53;3521822;28;20282;-78
2021/07/12 22:47:54;;;;;;;11.53;6.80;;;;;;;27.87;43.42;100010.09;3521504;28;20043;-78
2021/07/12 22:49:35;;;;;;;12.73;7.60;;;;;;;27.86;43.53;100013.16;3520814;28;20044;-78
2021/07/12 22:51:17;;;;;;;12.00;7.20;;;;;;;27.87;43.60;100009.28;3521622;28;20293;-76
2021/07/12 22:52:58;;;;;;;15.13;8.10;;;;;;;27.86;43.39;100011.22;3531998;28;20550;-77
2021/07/12 22:54:43;;;;;;;14.85;7.15;;;;;;;27.86;43.67;100013.97;3521334;28;20119;-79
2021/07/12 22:56:28;;;;;;;11.98;7.43;;;;;;;27.86;43.69;100018.63;3519190;28;20039;-79
2021/07/12 22:58:13;;;;;;;15.50;7.78;;;;;;;27.86;43.55;100015.88;3526471;28;20058;-77
2021/07/12 22:59:55;;;;;;;11.43;7.53;;;;;;;27.84;43.28;100022.47;3525842;28;20065;-78
2021/07/12 23:01:35;;;;;;;10.23;6.50;;;;;;;27.83;43.71;100020.84;3526204;28;20047;-76
2021/07/12 23:03:16;;;;;;;13.00;6.60;;;;;;;27.81;43.31;100016.78;3520579;28;20066;-77
2021/07/12 23:04:57;;;;;;;12.27;6.78;;;;;;;27.80;43.51;100020.59;3496988;28;20044;-77
2021/07/12 23:06:39;;;;;;;12.33;7.37;;;;;;;27.79;43.45;100019.78;3509701;28;20071;-78
2021/07/12 23:08:19;;;;;;;12.95;6.70;;;;;;;27.79;43.53;100025.25;3496726;28;20037;-76
2021/07/12 23:10:15;;;;;;;9.97;5.40;;;;;;;27.78;43.65;100023.66;3508419;28;20563;-78
2021/07/12 23:11:56;;;;;;;16.10;9.60;;;;;;;27.77;43.98;100010.25;3494837;28;22100;-70
2021/07/12 23:13:37;;;;;;;19.65;11.65;;;;;;;27.76;45.38;100014.91;3507130;28;20039;-68
2021/07/12 23:15:20;;;;;;;15.23;7.60;;;;;;;27.78;46.66;100018.16;3510751;28;20100;-69
2021/07/12 23:17:01;;;;;;;9.98;5.90;;;;;;;27.79;47.15;100019.78;3510403;28;20039;-70
2021/07/12 23:18:42;;;;;;;11.30;6.80;;;;;;;27.81;47.35;100006.63;3510730;28;20039;-69
2021/07/12 23:20:24;;;;;;;;;;;;;;;27.86;46.80;100013.16;3503663;28;20562;-69
2021/07/12 23:22:05;;;;;;;18.92;5.90;;;;;;;27.84;47.41;100016.97;3510226;28;20385;-70
2021/07/12 23:23:46;;;;;;;20.88;6.78;;;;;;;27.86;46.91;100027.66;3511515;28;20075;-70
2021/07/12 23:25:26;;;;;;;15.17;6.83;;;;;;;27.86;47.78;100024.91;3511753;28;20047;-69
2021/07/12 23:27:07;;;;;;;13.30;6.90;;;;;;;27.89;48.02;100028.97;3511382;28;20047;-70
2021/07/12 23:28:49;;;;;;;12.30;6.17;;;;;;;27.90;48.67;100025.13;3511576;28;20381;-70
2021/07/12 23:30:30;;;;;;;9.95;6.20;;;;;;;27.93;48.83;100040.94;3512247;28;20067;-69
2021/07/12 23:32:12;;;;;;;19.27;6.15;;;;;;;27.91;48.66;100032.22;3511456;28;20070;-70
2021/07/12 23:33:53;;;;;;;26.60;6.05;;;;;;;27.92;48.79;100037.38;3507096;28;20406;-70
2021/07/12 23:35:35;;;;;;;;;;;;;;;27.96;48.28;100034.84;3511337;28;20044;-70
2021/07/12 23:37:16;;;;;;;11.85;6.50;;;;;;;27.91;48.10;100038.53;3510984;28;20023;-70
2021/07/12 23:38:56;;;;;;;12.23;6.57;;;;;;;27.89;48.14;100031.72;3510657;28;20040;-70
2021/07/12 23:40:37;;;;;;;11.00;5.67;;;;;;;27.90;47.72;100038.81;3509534;28;20521;-71
2021/07/12 23:42:18;;;;;;;13.38;6.65;;;;;;;27.90;47.69;100025.13;3510336;28;20043;-71
2021/07/12 23:43:59;;;;;;;8.00;6.07;;;;;;;27.91;48.10;100041.25;3511110;28;20135;-70
2021/07/12 23:45:40;;;;;;;9.40;6.07;;;;;;;27.90;48.57;100036.06;3510877;28;20047;-70
2021/07/12 23:47:20;;;;;;;11.53;6.73;;;;;;;27.92;48.41;100039.31;3510130;28;20062;-69
2021/07/12 23:49:01;;;;;;;10.80;6.20;;;;;;;27.93;48.00;100040.94;3511170;28;20529;-70
2021/07/12 23:50:43;;;;;;;9.37;5.83;;;;;;;27.93;48.42;100040.94;3509668;28;20474;-71
2021/07/12 23:52:24;;;;;;;10.75;6.50;;;;;;;27.94;48.10;100042.59;3507031;28;20036;-68
2021/07/12 23:54:04;;;;;;;10.95;6.40;;;;;;;27.93;47.82;100041.78;3510150;28;20040;-70
2021/07/12 23:55:45;;;;;;;9.60;6.80;;;;;;;27.94;48.39;100045.31;3510576;28;20043;-68
2021/07/12 23:57:26;;;;;;;9.03;6.20;;;;;;;27.94;48.22;100042.59;3488627;28;20123;-69
2021/07/12 23:59:06;;;;;;;10.40;5.97;;;;;;;27.92;47.96;100045.63;3507676;28;20093;-78
